Time;durP1;ratioP1;P1;durP2;ratioP2;P2;SDS_P1;SDS_P2;PMS_P1;PMS_P2;Temp;Humidity;BMP_temperature;BMP_pressure;BME280_temperature;BME280_humidity;BME280_pressure;Samples;Min_cycle;Max_cycle;Signal;HPM_P1;HPM_P2
2022/11/21 00:00:24;;;;;;;;;;;;;;;17.15;48.98;100122.63;4863106;29;1175;-44
2022/11/21 00:02:50;;;;;;;;;;;;;;;16.94;48.28;100116.53;4864096;29;1168;-42
2022/11/21 00:05:15;;;;;;;;;;;;;;;17.87;48.74;100116.16;4864048;29;1172;-43
2022/11/21 00:07:41;;;;;;;;;;;;;;;17.10;49.41;100117.19;4864402;29;1207;-42
2022/11/21 00:10:06;;;;;;;;;;;;;;;16.95;48.26;100100.91;4864256;29;1089;-42
2022/11/21 00:12:32;;;;;;;;;;;;;;;17.23;48.28;100101.94;4864358;29;1133;-41
2022/11/21 00:14:57;;;;;;;;;;;;;;;17.26;49.06;100093.09;4863772;29;1239;-41
2022/11/21 00:17:23;;;;;;;;;;;;;;;16.87;48.47;100088.59;4864108;29;1911;-47
2022/11/21 00:19:48;;;;;;;;;;;;;;;16.89;47.26;100087.22;4864158;29;1136;-40
2022/11/21 00:22:13;;;;;;;;;;;;;;;17.39;48.57;100084.13;4863438;29;1136;-47
2022/11/21 00:24:39;;;;;;;;;;;;;;;17.16;48.98;100069.31;4864092;29;1545;-44
2022/11/21 00:27:04;;;;;;;;;;;;;;;16.84;48.54;100073.50;4864093;29;1145;-43
2022/11/21 00:29:30;;;;;;;;;;;;;;;16.81;47.55;100067.81;4848223;29;1119;-42
2022/11/21 00:31:55;;;;;;;;;;;;;;;16.72;47.15;100064.91;4863826;29;1176;-40
2022/11/21 00:34:21;;;;;;;;;;;;;;;16.72;46.82;100059.41;4864204;29;1180;-43
2022/11/21 00:36:46;;;;;;;;;;;;;;;17.10;48.42;100049.34;4864140;29;1223;-42
2022/11/21 00:39:11;;;;;;;;;;;;;;;16.86;47.85;100037.56;4863390;29;1910;-41
2022/11/21 00:41:37;;;;;;;;;;;;;;;17.77;48.46;100037.38;4863899;29;1132;-47
2022/11/21 00:44:02;;;;;;;;;;;;;;;17.07;48.84;100035.38;4863691;29;1195;-43
2022/11/21 00:46:28;;;;;;;;;;;;;;;16.81;47.98;100027.44;4864415;29;1097;-40
2022/11/21 00:48:53;;;;;;;;;;;;;;;17.79;48.51;100023.34;4864181;29;1183;-44
2022/11/21 00:51:18;;;;;;;;;;;;;;;17.19;48.52;100011.03;4863409;29;1165;-41
2022/11/21 00:53:44;;;;;;;;;;;;;;;16.90;47.99;100005.66;4863658;29;1167;-45
2022/11/21 00:56:09;;;;;;;;;;;;;;;16.76;47.32;99989.88;4863861;29;1191;-40
2022/11/21 00:58:35;;;;;;;;;;;;;;;17.52;48.97;99991.06;4863876;29;1974;-43
2022/11/21 01:01:01;;;;;;;;;;;;;;;17.01;48.60;99979.72;4863808;29;1140;-45
2022/11/21 01:03:26;;;;;;;;;;;;;;;16.80;47.79;99959.91;4862931;29;1164;-42
2022/11/21 01:05:52;;;;;;;;;;;;;;;16.80;48.35;99939.88;4863862;29;1219;-41
2022/11/21 01:08:17;;;;;;;;;;;;;;;17.47;48.73;99927.91;4863307;29;1213;-44
2022/11/21 01:10:43;;;;;;;;;;;;;;;17.01;48.52;99938.53;4865541;29;1226;-42
2022/11/21 01:13:08;;;;;;;;;;;;;;;16.87;48.62;99932.06;4867128;29;1203;-41
2022/11/21 01:15:33;;;;;;;;;;;;;;;17.31;49.16;99927.38;4864695;29;1124;-42
2022/11/21 01:17:59;;;;;;;;;;;;;;;17.04;48.29;99926.09;4855942;29;1907;-42
2022/11/21 01:20:24;;;;;;;;;;;;;;;16.81;47.62;99922.28;4867380;29;1168;-43
2022/11/21 01:22:50;;;;;;;;;;;;;;;16.72;46.86;99922.13;4853926;29;1171;-42
2022/11/21 01:25:15;;;;;;;;;;;;;;;17.25;48.64;99918.34;4866887;29;1121;-44
2022/11/21 01:27:41;;;;;;;;;;;;;;;16.83;49.25;99911.81;4866448;29;1133;-42
2022/11/21 01:30:06;;;;;;;;;;;;;;;18.52;49.04;99912.78;4866538;29;1211;-42
2022/11/21 01:32:32;;;;;;;;;;;;;;;17.66;49.91;99912.19;4866617;29;1168;-46
2022/11/21 01:34:57;;;;;;;;;;;;;;;17.27;48.99;99899.66;4866526;29;1191;-46
2022/11/21 01:37:23;;;;;;;;;;;;;;;17.05;48.21;99897.53;4866996;29;1207;-44
2022/11/21 01:39:48;;;;;;;;;;;;;;;16.88;47.30;99898.03;4866493;29;1914;-41
2022/11/21 01:42:13;;;;;;;;;;;;;;;16.84;46.51;99883.25;4866767;29;1218;-45
2022/11/21 01:44:49;;;;;;;;;;;;;;;16.73;46.67;99886.16;4865925;29;1105;-44
2022/11/21 01:47:14;;;;;;;;;;;;;;;17.32;48.80;99880.34;4866443;29;1504;-43
2022/11/21 01:49:40;;;;;;;;;;;;;;;16.93;48.12;99871.34;4866823;29;1145;-41
2022/11/21 01:52:05;;;;;;;;;;;;;;;16.76;47.40;99869.09;4865968;29;1219;-41
2022/11/21 01:54:31;;;;;;;;;;;;;;;16.73;46.76;99875.19;4866322;29;1135;-42
2022/11/21 01:57:05;;;;;;;;;;;;;;;16.69;46.25;99868.66;4866477;29;1207;-40
2022/11/21 01:59:42;;;;;;;;;;;;;;;17.72;48.18;99883.47;4865857;29;1911;-43
2022/11/21 02:02:08;;;;;;;;;;;;;;;17.07;48.46;99878.84;4838263;29;1146;-43
2022/11/21 02:04:34;;;;;;;;;;;;;;;16.81;47.66;99881.91;4852795;29;1183;-44
2022/11/21 02:07:00;;;;;;;;;;;;;;;16.74;46.91;99876.78;4849264;29;1143;-42
2022/11/21 02:09:25;;;;;;;;;;;;;;;16.72;47.21;99873.53;4849697;29;1156;-42
2022/11/21 02:11:52;;;;;;;;;;;;;;;17.26;48.49;99874.13;4849708;29;1191;-40
2022/11/21 02:14:18;;;;;;;;;;;;;;;16.81;48.32;99870.13;4865517;29;1215;-43
2022/11/21 02:16:44;;;;;;;;;;;;;;;16.65;47.58;99884.06;4865794;29;1156;-42
2022/11/21 02:19:09;;;;;;;;;;;;;;;17.78;48.39;99875.94;4866115;29;1919;-43
2022/11/21 02:21:44;;;;;;;;;;;;;;;17.15;48.81;99871.81;4865271;29;1212;-45
2022/11/21 02:24:12;;;;;;;;;;;;;;;18.18;49.19;99870.00;4863096;29;1112;-44
2022/11/21 02:26:38;;;;;;;;;;;;;;;18.22;49.82;99863.56;4865893;29;1160;-46
2022/11/21 02:29:03;;;;;;;;;;;;;;;17.48;49.47;99858.09;4873488;29;1196;-44
2022/11/21 02:31:29;;;;;;;;;;;;;;;17.18;48.67;99862.97;4866050;29;1235;-42
2022/11/21 02:33:54;;;;;;;;;;;;;;;17.02;47.95;99854.19;4865872;29;1160;-45
2022/11/21 02:36:39;;;;;;;;;;;;;;;16.95;47.31;99838.06;4865333;29;1207;-45
2022/11/21 02:39:09;;;;;;;;;;;;;;;16.86;46.79;99850.84;4865653;29;1906;-43
2022/11/21 02:41:34;;;;;;;;;;;;;;;16.79;46.22;99850.38;4849832;29;1092;-43
2022/11/21 02:44:08;;;;;;;;;;;;;;;17.24;48.43;99840.63;4849272;29;1124;-44
2022/11/21 02:46:34;;;;;;;;;;;;;;;16.90;47.95;99851.88;4865117;29;1116;-43
2022/11/21 02:48:59;;;;;;;;;;;;;;;16.82;47.03;99834.13;4865498;29;1187;-42
2022/11/21 02:51:25;;;;;;;;;;;;;;;16.68;47.06;99817.59;4848758;29;1125;-43
2022/11/21 02:53:50;;;;;;;;;;;;;;;16.99;47.06;99833.63;4870298;29;961;-42
2022/11/21 02:56:15;;;;;;;;;;;;;;;17.01;48.45;99820.41;4865199;29;1203;-46
2022/11/21 02:58:41;;;;;;;;;;;;;;;16.82;47.85;99814.09;4864970;29;1902;-45
2022/11/21 03:01:06;;;;;;;;;;;;;;;16.71;47.13;99811.50;4865437;29;1410;-45
2022/11/21 03:03:32;;;;;;;;;;;;;;;17.65;48.34;99806.09;4868464;29;1218;-46
2022/11/21 03:05:57;;;;;;;;;;;;;;;17.03;48.90;99790.72;4868032;29;938;-40
2022/11/21 03:08:22;;;;;;;;;;;;;;;16.83;47.85;99782.78;4865090;29;1136;-43
2022/11/21 03:10:48;;;;;;;;;;;;;;;16.52;47.72;99769.53;4865527;29;1219;-45
2022/11/21 03:13:13;;;;;;;;;;;;;;;17.30;48.74;99772.66;4864944;29;1143;-42
2022/11/21 03:15:39;;;;;;;;;;;;;;;17.00;48.61;99766.59;4864859;29;1175;-43
2022/11/21 03:18:04;;;;;;;;;;;;;;;18.52;49.21;99755.88;4870595;29;1982;-46
2022/11/21 03:20:30;;;;;;;;;;;;;;;17.53;50.53;99764.53;4864440;29;1208;-44
2022/11/21 03:22:55;;;;;;;;;;;;;;;17.36;48.94;99759.63;4864542;29;1235;-45
2022/11/21 03:25:21;;;;;;;;;;;;;;;17.03;48.64;99755.00;4865059;29;1121;-45
2022/11/21 03:27:49;;;;;;;;;;;;;;;16.90;47.83;99753.03;4864241;29;1243;-41
2022/11/21 03:30:15;;;;;;;;;;;;;;;16.87;47.92;99753.59;4864658;29;958;-43
2022/11/21 03:32:40;;;;;;;;;;;;;;;17.59;49.50;99757.84;4864580;29;1168;-44
2022/11/21 03:35:06;;;;;;;;;;;;;;;17.16;49.02;99744.34;4863840;29;1239;-42
2022/11/21 03:37:31;;;;;;;;;;;;;;;16.92;48.21;99746.13;4864364;29;1910;-44
2022/11/21 03:39:57;;;;;;;;;;;;;;;16.90;47.34;99737.38;4864739;29;1223;-43
2022/11/21 03:42:22;;;;;;;;;;;;;;;16.83;46.97;99733.34;4864327;29;882;-42
2022/11/21 03:44:48;;;;;;;;;;;;;;;16.74;46.51;99722.25;4864436;29;1155;-42
2022/11/21 03:47:13;;;;;;;;;;;;;;;16.57;46.26;99733.78;4864422;29;1165;-44
2022/11/21 03:49:39;;;;;;;;;;;;;;;17.21;47.46;99725.03;4864293;29;1105;-45
2022/11/21 03:52:04;;;;;;;;;;;;;;;17.04;49.05;99723.69;4864366;29;1224;-41
2022/11/21 03:54:29;;;;;;;;;;;;;;;16.84;48.05;99715.78;4864447;29;990;-43
2022/11/21 03:56:55;;;;;;;;;;;;;;;16.74;47.36;99717.56;4864394;29;1168;-44
2022/11/21 03:59:20;;;;;;;;;;;;;;;16.61;46.89;99704.63;4864264;29;2008;-44
2022/11/21 04:01:46;;;;;;;;;;;;;;;17.45;47.63;99708.34;4864429;29;1152;-45
2022/11/21 04:04:11;;;;;;;;;;;;;;;16.91;48.28;99705.22;4864201;29;1169;-43
2022/11/21 04:06:37;;;;;;;;;;;;;;;16.74;47.49;99698.34;4863543;29;1104;-41
2022/11/21 04:09:02;;;;;;;;;;;;;;;16.57;47.08;99698.09;4864139;29;1085;-44
2022/11/21 04:11:27;;;;;;;;;;;;;;;17.41;47.90;99693.59;4863998;29;1101;-46
2022/11/21 04:13:53;;;;;;;;;;;;;;;16.82;48.30;99693.31;4864251;29;1227;-45
2022/11/21 04:16:18;;;;;;;;;;;;;;;16.67;47.79;99688.88;4863497;29;1148;-46
2022/11/21 04:18:44;;;;;;;;;;;;;;;17.52;48.30;99697.75;4862645;29;1910;-46
2022/11/21 04:21:09;;;;;;;;;;;;;;;16.95;48.74;99695.28;4863898;29;1132;-46
2022/11/21 04:23:35;;;;;;;;;;;;;;;16.73;48.13;99680.28;4863774;29;1222;-48
2022/11/21 04:26:00;;;;;;;;;;;;;;;16.64;47.42;99678.50;4863985;29;1211;-46
2022/11/21 04:28:25;;;;;;;;;;;;;;;16.61;46.87;99679.94;4863874;29;1141;-49
2022/11/21 04:30:51;;;;;;;;;;;;;;;16.60;46.29;99673.59;4863642;29;910;-46
2022/11/21 04:33:16;;;;;;;;;;;;;;;17.75;47.92;99662.94;4858366;29;2911;-48
2022/11/21 04:35:42;;;;;;;;;;;;;;;17.00;48.61;99664.16;4863676;29;1136;-45
2022/11/21 04:38:07;;;;;;;;;;;;;;;16.82;47.92;99668.59;4863354;29;1976;-48
2022/11/21 04:40:33;;;;;;;;;;;;;;;17.00;48.27;99658.66;4863403;29;1081;-44
2022/11/21 04:42:59;;;;;;;;;;;;;;;16.98;48.67;99645.25;4863403;29;1121;-44
2022/11/21 04:45:24;;;;;;;;;;;;;;;16.81;47.96;99659.53;4865209;29;1108;-43
2022/11/21 04:47:49;;;;;;;;;;;;;;;17.95;48.80;99655.38;4867320;29;1101;-43
2022/11/21 04:50:15;;;;;;;;;;;;;;;17.16;49.33;99640.78;4866802;29;1168;-45
2022/11/21 04:52:41;;;;;;;;;;;;;;;17.82;49.59;99645.19;4865131;29;1576;-46
2022/11/21 04:55:06;;;;;;;;;;;;;;;17.74;49.98;99635.72;4867356;29;1124;-46
2022/11/21 04:57:32;;;;;;;;;;;;;;;17.26;49.59;99632.34;4867227;29;1237;-45
2022/11/21 04:59:57;;;;;;;;;;;;;;;17.08;48.35;99620.34;4867581;29;1001;-46
2022/11/21 05:02:23;;;;;;;;;;;;;;;17.04;47.66;99629.47;4870484;29;1817;-43
2022/11/21 05:04:48;;;;;;;;;;;;;;;16.80;47.32;99633.19;4866790;29;1104;-46
2022/11/21 05:07:13;;;;;;;;;;;;;;;17.51;48.80;99640.34;4866881;29;914;-43
2022/11/21 05:09:39;;;;;;;;;;;;;;;17.08;48.88;99645.06;4866463;29;1081;-43
2022/11/21 05:14:48;;;;;;;;;;;;;;;16.75;47.54;99645.06;4865890;29;1013;-45
2022/11/21 05:17:14;;;;;;;;;;;;;;;17.37;48.77;99641.16;4866784;29;1096;-40
2022/11/21 05:19:39;;;;;;;;;;;;;;;16.98;48.47;99634.25;4866570;29;2066;-41
2022/11/21 05:22:05;;;;;;;;;;;;;;;16.80;47.81;99624.13;4866930;29;1175;-40
2022/11/21 05:24:30;;;;;;;;;;;;;;;17.54;48.53;99604.81;4866702;29;1279;-48
2022/11/21 05:26:56;;;;;;;;;;;;;;;17.00;48.74;99612.81;4866744;29;1121;-46
2022/11/21 05:29:21;;;;;;;;;;;;;;;16.88;47.64;99607.81;4866932;29;1073;-44
2022/11/21 05:31:46;;;;;;;;;;;;;;;16.81;47.24;99612.06;4865873;29;1971;-46
2022/11/21 05:34:12;;;;;;;;;;;;;;;17.64;48.01;99609.25;4862649;29;1124;-43
2022/11/21 05:36:37;;;;;;;;;;;;;;;17.30;48.77;99607.81;4866686;29;1212;-48
2022/11/21 05:39:03;;;;;;;;;;;;;;;16.92;48.19;99610.78;4866210;29;1910;-42
2022/11/21 05:41:28;;;;;;;;;;;;;;;17.29;48.35;99617.16;4865766;29;1298;-45
2022/11/21 05:43:54;;;;;;;;;;;;;;;17.36;49.69;99612.09;4865914;29;1572;-43
2022/11/21 05:46:20;;;;;;;;;;;;;;;16.91;48.96;99625.59;4865168;29;1081;-45
2022/11/21 05:48:46;;;;;;;;;;;;;;;16.80;48.08;99619.44;4865449;29;987;-41
2022/11/21 05:51:11;;;;;;;;;;;;;;;16.77;47.50;99612.66;4865359;29;1221;-40
2022/11/21 05:53:37;;;;;;;;;;;;;;;17.63;48.41;99602.16;4865862;29;942;-43
2022/11/21 05:56:03;;;;;;;;;;;;;;;17.01;48.91;99614.44;4865394;29;1101;-49
2022/11/21 05:58:28;;;;;;;;;;;;;;;16.82;47.87;99605.44;4865343;29;1914;-42
2022/11/21 06:00:57;;;;;;;;;;;;;;;16.75;47.28;99603.09;4866083;29;966;-44
2022/11/21 06:03:26;;;;;;;;;;;;;;;16.69;46.98;99602.38;4859649;29;1849;-44
2022/11/21 06:05:52;;;;;;;;;;;;;;;16.64;46.22;99616.19;4865764;29;1268;-47
2022/11/21 06:08:17;;;;;;;;;;;;;;;17.26;47.58;99617.78;4860491;29;1152;-45
2022/11/21 06:10:43;;;;;;;;;;;;;;;17.00;47.70;99625.72;4864303;29;1541;-46
2022/11/21 06:13:20;;;;;;;;;;;;;;;18.29;48.72;99616.31;4864226;29;1212;-48
2022/11/21 06:15:50;;;;;;;;;;;;;;;18.19;50.22;99633.06;4865060;29;1364;-50
2022/11/21 06:18:15;;;;;;;;;;;;;;;17.52;49.87;99636.50;4856533;29;1903;-49
2022/11/21 06:20:41;;;;;;;;;;;;;;;17.20;49.09;99646.47;4865072;29;1219;-47
2022/11/21 06:23:06;;;;;;;;;;;;;;;17.10;48.06;99659.28;4864299;29;1622;-47
2022/11/21 06:25:32;;;;;;;;;;;;;;;16.98;47.42;99667.22;4865463;29;1187;-48
2022/11/21 06:28:00;;;;;;;;;;;;;;;16.89;47.01;99669.84;4865571;29;1155;-48
2022/11/21 06:30:26;;;;;;;;;;;;;;;16.76;47.31;99665.13;4865519;29;1149;-48
2022/11/21 06:32:51;;;;;;;;;;;;;;;17.72;47.00;99647.03;4864100;29;2034;-46
2022/11/21 06:35:17;;;;;;;;;;;;;;;17.22;48.62;99616.75;4865096;29;1089;-47
2022/11/21 06:37:42;;;;;;;;;;;;;;;17.00;49.64;99637.53;4854598;29;1972;-50
2022/11/21 06:40:08;;;;;;;;;;;;;;;16.84;50.40;99645.19;4865200;29;1235;-43
2022/11/21 06:42:33;;;;;;;;;;;;;;;16.72;50.95;99648.44;4861711;29;1164;-46
2022/11/21 06:44:59;;;;;;;;;;;;;;;16.67;51.24;99656.75;4864852;29;1176;-44
2022/11/21 06:47:24;;;;;;;;;;;;;;;16.52;51.81;99654.28;4864179;29;1191;-44
2022/11/21 06:49:50;;;;;;;;;;;;;;;16.47;52.40;99643.41;4864529;29;961;-45
2022/11/21 06:52:15;;;;;;;;;;;;;;;16.36;52.83;99646.28;4860387;29;1489;-46
2022/11/21 06:54:40;;;;;;;;;;;;;;;16.28;52.97;99638.75;4864635;29;998;-44
2022/11/21 06:57:06;;;;;;;;;;;;;;;16.19;53.47;99637.81;4863110;29;1312;-42
2022/11/21 06:59:31;;;;;;;;;;;;;;;16.17;53.48;99638.13;4863909;29;1915;-46
2022/11/21 07:01:57;;;;;;;;;;;;;;;16.11;53.73;99649.47;4861402;29;1785;-44
2022/11/21 07:04:22;;;;;;;;;;;;;;;15.99;53.84;99658.94;4860666;29;1021;-44
2022/11/21 07:06:47;;;;;;;;;;;;;;;15.97;54.19;99674.88;4863083;29;1089;-49
2022/11/21 07:09:13;;;;;;;;;;;;;;;15.94;54.21;99672.72;4863394;29;1140;-47
2022/11/21 07:11:38;;;;;;;;;;;;;;;15.87;54.34;99661.31;4863165;29;1489;-50
2022/11/21 07:14:04;;;;;;;;;;;;;;;15.81;54.62;99659.75;4864267;29;973;-47
2022/11/21 07:16:31;;;;;;;;;;;;;;;17.15;52.29;99671.28;4864765;29;1180;-47
2022/11/21 07:18:56;;;;;;;;;;;;;;;16.62;53.54;99676.06;4858098;29;1902;-46
2022/11/21 07:21:22;;;;;;;;;;;;;;;16.27;54.42;99670.06;4864571;29;1200;-50
2022/11/21 07:23:47;;;;;;;;;;;;;;;16.14;54.78;99660.63;4857633;29;1144;-47
2022/11/21 07:26:13;;;;;;;;;;;;;;;16.07;54.82;99672.00;4863313;29;1153;-48
2022/11/21 07:28:38;;;;;;;;;;;;;;;16.64;54.21;99657.34;4861785;29;1319;-50
2022/11/21 07:31:04;;;;;;;;;;;;;;;17.09;53.04;99671.38;4858444;29;1481;-44
2022/11/21 07:33:29;;;;;;;;;;;;;;;16.47;54.56;99654.38;4860882;29;1738;-47
2022/11/21 07:35:56;;;;;;;;;;;;;;;16.25;55.19;99656.63;4864053;29;1180;-49
2022/11/21 07:38:21;;;;;;;;;;;;;;;16.15;55.27;99670.50;4863309;29;1992;-47
2022/11/21 07:40:47;;;;;;;;;;;;;;;16.04;55.32;99656.13;4864137;29;1097;-46
2022/11/21 07:43:12;;;;;;;;;;;;;;;17.37;52.89;99663.16;4862092;29;1231;-48
2022/11/21 07:45:38;;;;;;;;;;;;;;;16.72;54.43;99658.59;4863008;29;1177;-50
2022/11/21 07:48:04;;;;;;;;;;;;;;;16.38;55.24;99654.22;4862089;29;1223;-47
2022/11/21 07:50:29;;;;;;;;;;;;;;;16.23;55.41;99650.63;4863970;29;962;-50
2022/11/21 07:52:58;;;;;;;;;;;;;;;17.02;54.28;99660.00;4863701;29;1077;-49
2022/11/21 07:55:24;;;;;;;;;;;;;;;17.01;53.77;99663.88;4862705;29;1187;-53
2022/11/21 07:57:56;;;;;;;;;;;;;;;16.57;55.23;99654.19;4863508;29;1975;-51
2022/11/21 08:00:22;;;;;;;;;;;;;;;16.38;55.42;99655.06;4863056;29;1116;-47
2022/11/21 08:02:47;;;;;;;;;;;;;;;16.25;55.41;99653.88;4864907;29;1885;-50
2022/11/21 08:05:12;;;;;;;;;;;;;;;16.18;55.42;99641.66;4871378;29;1168;-48
2022/11/21 08:07:38;;;;;;;;;;;;;;;16.10;55.64;99654.09;4862232;29;1525;-48
2022/11/21 08:10:03;;;;;;;;;;;;;;;16.06;55.37;99640.19;4863916;29;1137;-51
2022/11/21 08:12:31;;;;;;;;;;;;;;;16.13;55.64;99636.25;4857499;29;1337;-50
2022/11/21 08:14:56;;;;;;;;;;;;;;;17.30;53.72;99631.72;4864906;29;1188;-50
2022/11/21 08:17:24;;;;;;;;;;;;;;;16.51;55.64;99647.97;4862653;29;1089;-51
2022/11/21 08:19:49;;;;;;;;;;;;;;;16.25;55.92;99647.59;4870015;29;1986;-48
2022/11/21 08:22:15;;;;;;;;;;;;;;;16.16;56.34;99657.59;4861755;29;1124;-55
2022/11/21 08:24:40;;;;;;;;;;;;;;;16.11;56.04;99654.94;4862419;29;1239;-49
2022/11/21 08:27:06;;;;;;;;;;;;;;;16.04;56.20;99650.63;4862413;29;1088;-47
2022/11/21 08:29:31;;;;;;;;;;;;;;;17.43;53.98;99650.97;4862473;29;1140;-48
2022/11/21 08:31:57;;;;;;;;;;;;;;;16.70;55.56;99656.13;4860676;29;1947;-50
2022/11/21 08:34:22;;;;;;;;;;;;;;;16.37;56.12;99653.41;4862694;29;1312;-48
2022/11/21 08:36:48;;;;;;;;;;;;;;;16.23;56.39;99658.06;4862421;29;1109;-49
2022/11/21 08:39:13;;;;;;;;;;;;;;;16.13;56.11;99660.94;4860609;29;1919;-46
2022/11/21 08:44:22;;;;;;;;;;;;;;;16.08;56.22;99659.91;4862323;29;1140;-47
2022/11/21 08:46:48;;;;;;;;;;;;;;;17.44;54.46;99644.31;4863023;29;1152;-45
2022/11/21 08:49:14;;;;;;;;;;;;;;;16.72;56.35;99648.44;4862403;29;1049;-51
2022/11/21 08:51:39;;;;;;;;;;;;;;;16.42;56.67;99653.34;4862705;29;1100;-45
2022/11/21 08:54:05;;;;;;;;;;;;;;;16.30;56.50;99644.75;4862534;29;1077;-47
2022/11/21 08:56:30;;;;;;;;;;;;;;;16.17;56.30;99635.38;4861944;29;1284;-47
2022/11/21 08:58:56;;;;;;;;;;;;;;;16.05;56.49;99635.81;4861937;29;1973;-47
2022/11/21 09:01:21;;;;;;;;;;;;;;;16.97;55.88;99643.63;4861484;29;1235;-47
2022/11/21 09:03:47;;;;;;;;;;;;;;;17.00;56.01;99648.50;4862014;29;1743;-45
2022/11/21 09:06:12;;;;;;;;;;;;;;;16.50;56.64;99645.53;4861527;29;1144;-43
2022/11/21 09:08:38;;;;;;;;;;;;;;;16.32;56.90;99637.03;4866260;29;950;-46
2022/11/21 09:11:04;;;;;;;;;;;;;;;16.19;56.79;99637.81;4862366;29;1276;-43
2022/11/21 09:13:29;;;;;;;;;;;;;;;16.09;56.82;99619.59;4862138;29;1109;-44
2022/11/21 09:18:40;;;;;;;;;;;;;;;17.02;56.54;99618.78;4862652;29;1907;-49
2022/11/21 09:21:06;;;;;;;;;;;;;;;17.15;56.01;99600.69;4863298;29;904;-46
2022/11/21 09:23:31;;;;;;;;;;;;;;;16.57;57.25;99602.06;4861721;29;1296;-46
2022/11/21 09:25:58;;;;;;;;;;;;;;;16.39;57.11;99601.78;4862309;29;1010;-45
2022/11/21 09:28:24;;;;;;;;;;;;;;;16.24;56.93;99588.34;4862671;29;1101;-47
2022/11/21 09:30:49;;;;;;;;;;;;;;;16.11;57.08;99586.38;4862000;29;1235;-45
2022/11/21 09:33:15;;;;;;;;;;;;;;;16.04;56.84;99581.28;4866423;29;1943;-48
2022/11/21 09:35:41;;;;;;;;;;;;;;;17.03;56.65;99578.44;4866456;29;1254;-46
2022/11/21 09:38:06;;;;;;;;;;;;;;;16.85;56.98;99566.41;4865876;29;1914;-45
2022/11/21 09:40:32;;;;;;;;;;;;;;;16.46;57.23;99573.16;4866198;29;1255;-43
2022/11/21 09:43:15;;;;;;;;;;;;;;;16.28;57.40;99561.94;4866494;29;1220;-45
2022/11/21 09:45:44;;;;;;;;;;;;;;;16.14;57.23;99555.63;4865925;29;1235;-46
2022/11/21 09:48:10;;;;;;;;;;;;;;;16.10;57.13;99554.59;4866670;29;1243;-44
2022/11/21 09:50:40;;;;;;;;;;;;;;;15.99;56.93;99549.28;4866031;29;1177;-42
2022/11/21 09:53:06;;;;;;;;;;;;;;;16.28;57.40;99534.50;4849742;29;1263;-45
2022/11/21 09:55:34;;;;;;;;;;;;;;;17.50;55.87;99551.59;4865870;29;1389;-47
2022/11/21 09:58:03;;;;;;;;;;;;;;;16.73;57.41;99555.91;4866236;29;1907;-42
2022/11/21 10:00:28;;;;;;;;;;;;;;;16.50;57.28;99541.28;4849296;29;1037;-46
2022/11/21 10:02:54;;;;;;;;;;;;;;;16.28;57.21;99548.22;4863934;29;1840;-48
2022/11/21 10:05:32;;;;;;;;;;;;;;;16.16;57.25;99540.50;4858026;29;1196;-48
2022/11/21 10:07:58;;;;;;;;;;;;;;;16.88;57.49;99535.59;4857918;29;947;-50
2022/11/21 10:10:44;;;;;;;;;;;;;;;17.09;57.07;99530.50;4867905;29;1108;-48
2022/11/21 10:13:09;;;;;;;;;;;;;;;16.59;57.60;99540.25;4864969;29;1056;-49
2022/11/21 10:15:37;;;;;;;;;;;;;;;16.38;57.56;99544.47;4865576;29;1148;-51
2022/11/21 10:18:20;;;;;;;;;;;;;;;16.28;57.40;99526.28;4865782;29;1977;-48
2022/11/21 10:20:49;;;;;;;;;;;;;;;16.15;57.07;99521.59;4865473;29;1180;-47
2022/11/21 10:23:31;;;;;;;;;;;;;;;17.25;56.98;99520.81;4865249;29;1019;-49
2022/11/21 10:26:06;;;;;;;;;;;;;;;16.79;57.54;99523.69;4849258;29;1084;-50
2022/11/21 10:29:10;;;;;;;;;;;;;;;16.49;57.70;99515.75;4865173;29;1117;-49
2022/11/21 10:31:36;;;;;;;;;;;;;;;16.29;57.38;99507.91;4807625;29;1427;-48
2022/11/21 10:34:02;;;;;;;;;;;;;;;16.15;57.18;99492.22;4793320;29;2202;-48
2022/11/21 10:36:29;;;;;;;;;;;;;;;16.08;57.09;99500.84;4816634;29;1208;-47
2022/11/21 10:38:57;;;;;;;;;;;;;;;17.01;57.38;99509.25;4847787;29;1972;-50
2022/11/21 10:41:35;;;;;;;;;;;;;;;17.14;57.20;99504.84;4851501;29;1232;-46
2022/11/21 10:47:27;;;;;;;;;;;;;;;16.37;57.33;99508.00;4849822;29;1387;-50
2022/11/21 10:50:04;;;;;;;;;;;;;;;16.20;57.42;99494.91;4853581;29;1049;-47
2022/11/21 10:52:31;;;;;;;;;;;;;;;16.13;57.19;99496.38;4848157;29;978;-46
2022/11/21 10:55:05;;;;;;;;;;;;;;;17.43;56.57;99496.22;4847576;29;987;-47
2022/11/21 10:57:31;;;;;;;;;;;;;;;16.81;57.86;99497.56;4864470;29;1112;-48
2022/11/21 11:00:00;;;;;;;;;;;;;;;16.50;57.61;99487.19;4863216;29;1982;-49
2022/11/21 11:02:26;;;;;;;;;;;;;;;16.36;57.77;99492.66;4870493;29;1809;-45
2022/11/21 11:05:10;;;;;;;;;;;;;;;16.20;57.39;99488.56;4865053;29;1122;-50
2022/11/21 11:07:35;;;;;;;;;;;;;;;16.21;57.63;99481.97;4870835;29;1155;-47
2022/11/21 11:10:19;;;;;;;;;;;;;;;17.41;56.94;99477.31;4870480;29;1159;-48
2022/11/21 11:15:29;;;;;;;;;;;;;;;16.37;57.75;99486.06;4850723;29;1489;-45
2022/11/21 11:18:01;;;;;;;;;;;;;;;16.21;57.52;99491.00;4864823;29;1910;-44
2022/11/21 11:20:40;;;;;;;;;;;;;;;16.14;57.27;99489.78;4863972;29;1330;-48
2022/11/21 11:23:29;;;;;;;;;;;;;;;17.09;57.45;99481.06;4862732;29;1402;-48
2022/11/21 11:25:56;;;;;;;;;;;;;;;16.89;57.75;99477.66;4864218;29;1331;-44
2022/11/21 11:28:24;;;;;;;;;;;;;;;16.53;57.88;99478.34;4863394;29;1473;-48
2022/11/21 11:30:53;;;;;;;;;;;;;;;16.34;57.44;99467.47;4863727;29;1161;-50
2022/11/21 11:33:31;;;;;;;;;;;;;;;16.23;57.45;99471.53;4864067;29;2103;-48
2022/11/21 11:35:58;;;;;;;;;;;;;;;16.15;57.06;99466.75;4863988;29;1195;-47
2022/11/21 11:38:24;;;;;;;;;;;;;;;16.28;57.49;99471.41;4864067;29;1984;-49
2022/11/21 11:40:49;;;;;;;;;;;;;;;17.47;56.69;99460.72;4847118;29;1093;-50
2022/11/21 11:49:23;;;;;;;;;;;;;;;16.21;57.49;99458.09;4844717;29;1306;-47
2022/11/21 11:51:55;;;;;;;;;;;;;;;16.15;57.41;99464.00;4870399;29;1120;-50
2022/11/21 11:54:22;;;;;;;;;;;;;;;16.04;57.18;99458.69;4845519;29;1184;-51
2022/11/21 11:56:47;;;;;;;;;;;;;;;15.96;56.93;99461.31;4864932;29;1124;-51
2022/11/21 11:59:19;;;;;;;;;;;;;;;16.58;57.90;99460.97;4846469;29;1986;-51
2022/11/21 12:02:11;;;;;;;;;;;;;;;17.30;57.15;99464.94;4863451;29;1136;-49
2022/11/21 12:04:42;;;;;;;;;;;;;;;16.56;58.16;99457.72;4860836;29;1116;-48
2022/11/21 12:07:18;;;;;;;;;;;;;;;16.30;58.05;99452.75;4866645;29;1160;-49
2022/11/21 12:09:49;;;;;;;;;;;;;;;16.15;57.52;99464.00;4862725;29;892;-50
2022/11/21 12:12:17;;;;;;;;;;;;;;;16.09;57.50;99463.28;4859071;29;1193;-50
2022/11/21 12:17:54;;;;;;;;;;;;;;;17.02;57.75;99462.25;4863086;29;1175;-51
2022/11/21 12:20:29;;;;;;;;;;;;;;;16.48;58.04;99491.34;4862435;29;1370;-45
2022/11/21 12:22:55;;;;;;;;;;;;;;;16.28;57.89;99496.09;4848674;29;1308;-49
2022/11/21 12:25:22;;;;;;;;;;;;;;;16.19;57.51;99511.66;4847173;29;978;-44
2022/11/21 12:27:49;;;;;;;;;;;;;;;16.07;57.55;99501.16;4846700;29;1276;-47
2022/11/21 12:30:32;;;;;;;;;;;;;;;16.55;58.46;99516.44;4861885;29;1267;-47
2022/11/21 12:33:03;;;;;;;;;;;;;;;17.26;57.73;99521.63;4862780;29;1160;-48
2022/11/21 12:35:31;;;;;;;;;;;;;;;16.56;58.54;99513.44;4861981;29;1239;-49
2022/11/21 12:38:12;;;;;;;;;;;;;;;16.37;58.19;99518.19;4861135;29;1972;-43
2022/11/21 12:40:40;;;;;;;;;;;;;;;16.24;58.00;99517.03;4864191;29;1932;-48
2022/11/21 12:43:10;;;;;;;;;;;;;;;16.13;57.56;99524.63;4861731;29;1071;-48
2022/11/21 12:45:56;;;;;;;;;;;;;;;16.18;57.99;99521.78;4845759;29;1232;-49
2022/11/21 12:54:29;;;;;;;;;;;;;;;16.28;58.05;99555.66;4850926;29;1203;-44
2022/11/21 12:56:57;;;;;;;;;;;;;;;16.14;57.69;99569.31;4861083;29;1144;-48
2022/11/21 12:59:22;;;;;;;;;;;;;;;16.03;57.19;99572.25;4845071;29;1907;-50
2022/11/21 13:02:14;;;;;;;;;;;;;;;16.84;58.63;99587.53;4861589;29;1469;-49
2022/11/21 13:04:39;;;;;;;;;;;;;;;16.84;58.66;99595.75;4828211;29;1375;-45
2022/11/21 13:07:05;;;;;;;;;;;;;;;16.43;58.31;99611.06;4865021;29;1144;-47
2022/11/21 13:09:32;;;;;;;;;;;;;;;16.25;58.02;99601.75;4868676;29;1806;-51
2022/11/21 13:12:09;;;;;;;;;;;;;;;16.11;57.84;99611.06;4848830;29;1197;-45
2022/11/21 13:14:38;;;;;;;;;;;;;;;16.52;58.86;99626.84;4849710;29;1391;-50
2022/11/21 13:17:22;;;;;;;;;;;;;;;17.40;57.75;99637.00;4866603;29;1239;-48
2022/11/21 13:20:02;;;;;;;;;;;;;;;16.61;58.50;99641.50;4866164;29;1902;-50
2022/11/21 13:22:34;;;;;;;;;;;;;;;16.38;58.06;99635.84;4866381;29;1270;-48
2022/11/21 13:25:00;;;;;;;;;;;;;;;16.21;57.75;99641.06;4866250;29;1180;-48
2022/11/21 13:27:25;;;;;;;;;;;;;;;16.11;57.26;99638.50;4866289;29;1065;-50